Time;durP1;ratioP1;P1;durP2;ratioP2;P2;SDS_P1;SDS_P2;PMS_P1;PMS_P2;Temp;Humidity;BMP_temperature;BMP_pressure;BME280_temperature;BME280_humidity;BME280_pressure;Samples;Min_cycle;Max_cycle;Signal;HPM_P1;HPM_P2
2022/04/17 00:00:32;;;;;;;5.88;2.38;;;8.80;69.20;;;;;;5033833;28;20034;-11
2022/04/17 00:02:58;;;;;;;5.35;2.70;;;8.70;69.50;;;;;;5033744;28;20029;-12
2022/04/17 00:05:24;;;;;;;5.38;2.53;;;8.70;69.40;;;;;;5032688;28;20045;-11
2022/04/17 00:07:50;;;;;;;4.78;2.60;;;8.60;69.40;;;;;;5033717;28;20095;-12
2022/04/17 00:10:16;;;;;;;5.80;2.58;;;8.60;69.50;;;;;;5033283;28;20025;-11
2022/04/17 00:12:43;;;;;;;4.28;2.63;;;8.50;69.60;;;;;;5033907;28;20029;-12
2022/04/17 00:15:10;;;;;;;3.50;2.60;;;8.50;69.60;;;;;;5033448;28;20025;-13
2022/04/17 00:17:42;;;;;;;3.28;2.25;;;8.40;70.00;;;;;;5033514;28;20389;-16
2022/04/17 00:20:13;;;;;;;4.35;2.67;;;8.30;69.70;;;;;;5033587;28;20030;-15
2022/04/17 00:22:45;;;;;;;5.32;2.65;;;8.30;70.30;;;;;;5033489;28;20021;-16
2022/04/17 00:25:12;;;;;;;9.57;3.35;;;8.20;70.20;;;;;;5033385;28;20108;-12
2022/04/17 00:27:41;;;;;;;5.25;3.00;;;8.20;70.50;;;;;;5033574;28;20485;-14
2022/04/17 00:30:08;;;;;;;7.35;3.03;;;8.20;70.70;;;;;;5033552;28;20052;-13
2022/04/17 00:32:35;;;;;;;5.20;3.40;;;8.10;70.50;;;;;;5033094;28;20034;-11
2022/04/17 00:35:02;;;;;;;5.88;3.05;;;8.10;71.10;;;;;;5033706;28;20393;-13
2022/04/17 00:37:28;;;;;;;4.05;2.72;;;8.10;69.90;;;;;;5033228;28;20461;-13
2022/04/17 00:39:54;;;;;;;5.78;3.20;;;8.20;69.60;;;;;;5033445;28;20041;-13
2022/04/17 00:42:20;;;;;;;5.82;3.13;;;8.20;69.10;;;;;;5032063;28;20109;-12
2022/04/17 00:44:47;;;;;;;5.43;3.10;;;8.20;69.40;;;;;;5033303;28;20021;-12
2022/04/17 00:47:15;;;;;;;5.38;3.20;;;8.20;69.00;;;;;;5033416;28;20548;-12
2022/04/17 00:49:45;;;;;;;5.70;2.92;;;8.20;69.10;;;;;;5033359;28;20224;-15
2022/04/17 00:52:13;;;;;;;6.03;3.25;;;8.20;69.10;;;;;;5033027;28;20029;-16
2022/04/17 00:54:44;;;;;;;4.35;3.10;;;8.10;69.20;;;;;;5033384;28;20018;-15
2022/04/17 00:57:12;;;;;;;3.72;2.85;;;8.00;69.20;;;;;;5033049;28;20025;-12
2022/04/17 00:59:44;;;;;;;5.35;3.40;;;7.90;69.40;;;;;;5033166;28;20039;-13
2022/04/17 01:02:11;;;;;;;6.47;3.10;;;7.90;69.60;;;;;;5033255;28;20021;-11
2022/04/17 01:04:38;;;;;;;4.50;3.10;;;7.80;69.90;;;;;;5033759;28;20041;-13
2022/04/17 01:07:04;;;;;;;8.80;3.10;;;7.70;70.10;;;;;;5032786;28;20049;-12
2022/04/17 01:09:31;;;;;;;6.45;3.63;;;7.60;70.10;;;;;;5037778;28;20029;-11
2022/04/17 01:11:58;;;;;;;4.20;2.58;;;7.50;69.80;;;;;;5035759;28;20029;-10
2022/04/17 01:14:27;;;;;;;6.07;3.30;;;7.50;69.60;;;;;;5036775;28;20029;-13
2022/04/17 01:16:53;;;;;;;5.75;3.13;;;7.50;69.00;;;;;;5037511;28;20029;-15
2022/04/17 01:19:20;;;;;;;6.43;3.20;;;7.50;68.60;;;;;;5037105;28;20037;-15
2022/04/17 01:21:49;;;;;;;6.70;2.90;;;7.50;69.00;;;;;;5036738;28;20482;-15
2022/04/17 01:27:02;;;;;;;5.30;3.08;;;7.50;68.70;;;;;;5037067;28;20033;-15
2022/04/17 01:29:36;;;;;;;4.22;3.05;;;7.40;68.70;;;;;;5037373;28;20130;-16
2022/04/17 01:32:03;;;;;;;;;;;7.40;68.40;;;;;;5037417;28;20026;-13
2022/04/17 01:34:29;;;;;;;8.85;3.65;;;7.40;68.90;;;;;;5036793;28;19912;-15
2022/04/17 01:36:56;;;;;;;4.28;2.90;;;7.30;68.80;;;;;;5036783;28;20477;-15
2022/04/17 01:39:23;;;;;;;6.63;3.30;;;7.20;68.70;;;;;;5036975;28;20390;-15
2022/04/17 01:41:50;;;;;;;6.57;3.70;;;7.20;68.90;;;;;;5036789;28;20029;-14
2022/04/17 01:44:17;;;;;;;5.75;3.22;;;7.20;69.20;;;;;;5036399;28;20030;-14
2022/04/17 01:46:45;;;;;;;8.18;3.90;;;7.10;69.00;;;;;;5036427;28;20022;-16
2022/04/17 01:49:12;;;;;;;7.07;3.65;;;7.00;69.00;;;;;;5036815;28;20025;-15
2022/04/17 01:51:39;;;;;;;7.93;3.78;;;7.00;69.10;;;;;;5036559;28;20033;-14
2022/04/17 01:54:10;;;;;;;7.72;3.80;;;7.00;69.00;;;;;;5036210;28;20032;-15
2022/04/17 01:56:37;;;;;;;5.53;3.47;;;6.90;69.00;;;;;;5036083;28;20532;-13
2022/04/17 01:59:05;;;;;;;5.32;2.80;;;6.90;69.00;;;;;;5036140;28;20071;-15
2022/04/17 02:01:33;;;;;;;4.80;2.85;;;6.90;69.10;;;;;;5036376;28;20111;-15
2022/04/17 02:04:00;;;;;;;4.63;2.65;;;6.90;68.80;;;;;;5036328;28;20037;-14
2022/04/17 02:06:26;;;;;;;4.20;2.78;;;6.90;68.70;;;;;;5035614;28;20048;-15
2022/04/17 02:08:52;;;;;;;5.50;2.75;;;6.90;68.60;;;;;;5035829;28;20029;-15
2022/04/17 02:11:22;;;;;;;6.68;3.40;;;6.90;68.70;;;;;;5035826;28;20032;-14
2022/04/17 02:13:51;;;;;;;5.90;3.28;;;6.80;69.00;;;;;;5035826;28;20486;-13
2022/04/17 02:16:18;;;;;;;7.13;3.25;;;6.80;69.20;;;;;;5035415;28;20056;-13
2022/04/17 02:18:48;;;;;;;5.88;3.47;;;6.70;69.30;;;;;;5035937;28;20036;-14
2022/04/17 02:21:16;;;;;;;8.85;4.10;;;6.70;69.40;;;;;;5035315;28;20436;-11
2022/04/17 02:23:43;;;;;;;7.38;3.80;;;6.70;69.50;;;;;;5035621;28;20065;-13
2022/04/17 02:26:10;;;;;;;6.45;3.63;;;6.60;69.60;;;;;;5035601;28;20025;-13
2022/04/17 02:28:38;;;;;;;6.25;3.45;;;6.60;69.70;;;;;;5035201;28;20033;-15
2022/04/17 02:31:05;;;;;;;5.85;3.40;;;6.60;69.90;;;;;;5035741;28;20025;-16
2022/04/17 02:33:32;;;;;;;4.15;2.88;;;6.50;69.90;;;;;;5035777;28;20055;-15
2022/04/17 02:35:58;;;;;;;7.45;3.80;;;6.50;70.10;;;;;;5035572;28;20025;-15
2022/04/17 02:38:24;;;;;;;6.05;3.20;;;6.40;70.40;;;;;;5035689;28;20030;-15
2022/04/17 02:40:51;;;;;;;7.10;3.50;;;6.40;70.20;;;;;;5035264;28;20029;-16
2022/04/17 02:43:17;;;;;;;5.50;3.40;;;6.40;70.20;;;;;;5035609;28;20071;-14
2022/04/17 02:45:43;;;;;;;5.50;3.40;;;6.40;70.20;;;;;;5035798;28;20377;-14
2022/04/17 02:48:09;;;;;;;5.22;3.38;;;6.30;70.30;;;;;;5035120;28;20059;-15
2022/04/17 02:50:36;;;;;;;9.25;3.85;;;6.30;70.40;;;;;;5034942;28;20113;-16
2022/04/17 02:53:02;;;;;;;6.68;3.80;;;6.20;70.50;;;;;;5035462;28;20025;-14
2022/04/17 02:55:28;;;;;;;7.90;4.20;;;6.20;70.50;;;;;;5035415;28;20499;-14
2022/04/17 02:57:55;;;;;;;7.00;3.83;;;6.20;70.50;;;;;;5035350;28;20029;-14
2022/04/17 03:00:23;;;;;;;6.22;4.22;;;6.10;70.70;;;;;;5034664;28;20053;-13
2022/04/17 03:05:37;;;;;;;6.63;4.20;;;6.00;70.80;;;;;;5035041;28;20120;-15
2022/04/17 03:08:04;;;;;;;6.10;3.70;;;5.90;71.00;;;;;;5035448;28;20052;-16
2022/04/17 03:10:35;;;;;;;5.40;3.40;;;5.90;70.90;;;;;;5034726;28;20037;-16
2022/04/17 03:13:01;;;;;;;7.18;4.15;;;5.90;70.70;;;;;;5034768;28;20021;-15
2022/04/17 03:15:27;;;;;;;6.95;3.92;;;6.00;70.10;;;;;;5034891;28;20025;-15
2022/04/17 03:17:53;;;;;;;5.57;3.70;;;6.00;70.00;;;;;;5034868;28;20193;-16
2022/04/17 03:20:19;;;;;;;9.38;4.40;;;6.10;69.40;;;;;;5034676;28;20079;-16
2022/04/17 03:22:45;;;;;;;8.32;4.38;;;6.10;68.90;;;;;;5034510;28;20112;-15
2022/04/17 03:25:12;;;;;;;7.47;4.15;;;6.10;68.90;;;;;;5034842;28;20096;-16
2022/04/17 03:27:38;;;;;;;5.32;3.33;;;6.20;68.90;;;;;;5034715;28;20047;-16
2022/04/17 03:30:05;;;;;;;5.95;3.75;;;6.10;68.70;;;;;;5034563;28;20489;-16
2022/04/17 03:32:32;;;;;;;6.20;3.50;;;6.10;68.60;;;;;;5033229;28;20039;-16
2022/04/17 03:34:58;;;;;;;6.07;3.33;;;6.00;68.80;;;;;;5034311;28;20505;-15
2022/04/17 03:37:24;;;;;;;5.57;3.88;;;5.90;69.10;;;;;;5034291;28;20028;-15
2022/04/17 03:39:50;;;;;;;5.78;3.63;;;5.80;69.40;;;;;;5034213;28;20029;-15
2022/04/17 03:42:16;;;;;;;6.57;4.20;;;5.70;69.40;;;;;;5034340;28;20033;-16
2022/04/17 03:44:42;;;;;;;8.38;4.57;;;5.60;69.70;;;;;;5034229;28;20030;-16
2022/04/17 03:47:08;;;;;;;6.95;4.13;;;5.50;70.10;;;;;;5034030;28;20032;-16
2022/04/17 03:49:34;;;;;;;7.72;4.47;;;5.40;70.20;;;;;;5033955;28;20042;-16
2022/04/17 03:52:00;;;;;;;8.35;4.75;;;5.40;70.60;;;;;;5034217;28;20071;-14
2022/04/17 03:54:27;;;;;;;6.57;3.78;;;5.40;71.20;;;;;;5033849;28;20033;-14
2022/04/17 03:56:53;;;;;;;8.20;4.57;;;5.40;70.70;;;;;;5033055;28;20029;-14
2022/04/17 03:59:19;;;;;;;7.60;3.70;;;5.40;70.40;;;;;;5034091;28;20025;-16
2022/04/17 04:01:48;;;;;;;7.32;4.13;;;5.40;70.10;;;;;;5033796;28;20501;-15
2022/04/17 04:04:15;;;;;;;8.07;4.25;;;5.30;70.20;;;;;;5034088;28;20136;-14
2022/04/17 04:06:42;;;;;;;8.15;4.05;;;5.20;70.30;;;;;;5033572;28;20088;-16
2022/04/17 04:09:08;;;;;;;7.78;4.63;;;5.10;70.50;;;;;;5033709;28;20025;-16
2022/04/17 04:11:34;;;;;;;7.55;4.20;;;5.10;70.90;;;;;;5033930;28;20032;-15
2022/04/17 04:14:00;;;;;;;7.55;4.63;;;5.00;70.90;;;;;;5032379;28;20461;-15
2022/04/17 04:16:26;;;;;;;10.52;4.63;;;5.00;71.30;;;;;;5033542;28;20026;-15
2022/04/17 04:18:53;;;;;;;6.13;3.83;;;5.00;71.10;;;;;;5033560;28;20389;-16
2022/04/17 04:21:19;;;;;;;8.20;4.38;;;5.10;70.90;;;;;;5033469;28;20041;-14
2022/04/17 04:23:50;;;;;;;8.48;4.63;;;5.10;71.10;;;;;;5033515;28;20025;-14
2022/04/17 04:26:16;;;;;;;7.93;4.47;;;5.10;71.90;;;;;;5033492;28;20025;-16
2022/04/17 04:28:42;;;;;;;7.55;4.15;;;5.10;71.00;;;;;;5033285;28;20496;-16
2022/04/17 04:31:13;;;;;;;8.38;4.88;;;5.20;70.80;;;;;;5031976;28;20039;-16
2022/04/17 04:33:43;;;;;;;7.50;4.30;;;5.20;70.70;;;;;;5033308;28;20032;-16
2022/04/17 04:36:13;;;;;;;7.53;4.85;;;5.30;70.30;;;;;;5033336;28;20033;-15
2022/04/17 04:38:40;;;;;;;7.78;4.57;;;5.20;70.80;;;;;;5033253;28;20025;-15
2022/04/17 04:41:06;;;;;;;7.97;4.22;;;5.20;70.90;;;;;;5032745;28;20037;-16
2022/04/17 04:43:32;;;;;;;7.50;4.63;;;5.30;70.70;;;;;;5033516;28;20048;-15
2022/04/17 04:46:08;;;;;;;8.02;4.93;;;5.40;70.50;;;;;;5033234;28;20517;-15
2022/04/17 04:51:21;;;;;;;8.00;4.63;;;5.50;70.20;;;;;;5033446;28;20033;-16
2022/04/17 04:53:48;;;;;;;7.93;4.30;;;5.60;69.90;;;;;;5033066;28;20033;-16
2022/04/17 04:56:16;;;;;;;7.32;4.43;;;5.70;70.00;;;;;;5032695;28;20025;-16
2022/04/17 04:58:43;;;;;;;7.47;3.88;;;5.80;69.70;;;;;;5033071;28;20040;-15
2022/04/17 05:01:09;;;;;;;7.13;4.47;;;6.00;69.20;;;;;;5032865;28;20026;-16
2022/04/17 05:03:35;;;;;;;7.63;4.45;;;6.20;69.20;;;;;;5033030;28;20105;-15
2022/04/17 05:06:02;;;;;;;8.75;4.82;;;6.40;68.80;;;;;;5032859;28;20100;-15
2022/04/17 05:08:28;;;;;;;7.40;4.53;;;6.70;68.50;;;;;;5032684;28;20120;-13
2022/04/17 05:10:54;;;;;;;7.28;4.47;;;7.00;67.50;;;;;;5031666;28;20083;-15
2022/04/17 05:13:20;;;;;;;7.60;4.70;;;7.40;66.70;;;;;;5033243;28;20503;-17
2022/04/17 05:15:46;;;;;;;7.20;4.57;;;7.60;65.50;;;;;;5033069;28;20029;-13
2022/04/17 05:18:13;;;;;;;7.53;4.68;;;7.80;64.30;;;;;;5032895;28;20417;-15
2022/04/17 05:20:39;;;;;;;6.95;5.05;;;7.90;65.00;;;;;;5033037;28;20029;-16
2022/04/17 05:23:22;;;;;;;7.03;4.28;;;8.20;63.00;;;;;;5032850;28;20025;-15
2022/04/17 05:25:52;;;;;;;12.23;4.88;;;8.40;64.60;;;;;;5033457;28;20021;-16
2022/04/17 05:28:18;;;;;;;6.90;4.22;;;8.90;62.20;;;;;;5032804;28;20034;-15
2022/04/17 05:30:45;;;;;;;6.63;4.30;;;9.10;62.70;;;;;;5032971;28;20030;-14
2022/04/17 05:33:11;;;;;;;8.07;4.95;;;9.30;62.40;;;;;;5032748;28;20068;-15
2022/04/17 05:35:38;;;;;;;7.80;4.70;;;9.50;61.80;;;;;;5032712;28;20461;-16
2022/04/17 05:38:05;;;;;;;8.13;5.03;;;9.70;62.00;;;;;;5033024;28;20469;-16
2022/04/17 05:40:37;;;;;;;6.10;4.00;;;9.80;58.10;;;;;;5032520;28;20412;-16
2022/04/17 05:43:04;;;;;;;6.93;3.97;;;9.90;60.00;;;;;;5032923;28;20029;-16
2022/04/17 05:45:32;;;;;;;6.15;4.13;;;10.00;61.10;;;;;;5032890;28;20032;-16
2022/04/17 05:47:59;;;;;;;7.25;4.80;;;10.20;60.90;;;;;;5032874;28;20029;-16
2022/04/17 05:50:27;;;;;;;7.07;4.47;;;10.40;59.20;;;;;;5031287;28;20044;-14
2022/04/17 05:52:53;;;;;;;6.78;4.40;;;10.50;59.50;;;;;;5033287;28;20030;-15
2022/04/17 05:55:20;;;;;;;7.07;4.55;;;10.60;58.70;;;;;;5033213;28;20514;-14
2022/04/17 05:57:46;;;;;;;8.10;4.30;;;10.70;59.90;;;;;;5036478;28;20052;-13
2022/04/17 06:00:14;;;;;;;7.13;4.15;;;10.90;59.30;;;;;;5036652;28;20040;-13
2022/04/17 06:02:40;;;;;;;7.82;4.60;;;11.10;57.80;;;;;;5036352;28;20056;-13
2022/04/17 06:05:07;;;;;;;11.13;4.68;;;11.20;55.30;;;;;;5034531;28;20390;-14
2022/04/17 06:07:33;;;;;;;9.10;4.70;;;11.40;54.20;;;;;;5036330;28;20068;-14
2022/04/17 06:10:07;;;;;;;8.05;4.40;;;11.50;53.50;;;;;;5035814;28;20037;-15
2022/04/17 06:12:34;;;;;;;9.48;5.18;;;11.80;56.00;;;;;;5035709;28;20025;-14
2022/04/17 06:15:01;;;;;;;7.60;4.35;;;12.10;50.40;;;;;;5036107;28;20053;-16
2022/04/17 06:17:27;;;;;;;9.40;4.28;;;12.40;50.40;;;;;;5036053;28;20038;-14
2022/04/17 06:19:53;;;;;;;8.00;4.38;;;12.50;48.50;;;;;;5035749;28;20025;-14
2022/04/17 06:22:19;;;;;;;8.43;4.00;;;12.70;48.40;;;;;;5035471;28;20053;-14
2022/04/17 06:24:46;;;;;;;7.18;3.70;;;12.90;49.90;;;;;;5035659;28;20021;-13
2022/04/17 06:27:11;;;;;;;6.47;4.30;;;13.10;48.70;;;;;;5035918;28;20029;-15
2022/04/17 06:29:37;;;;;;;6.65;3.70;;;13.30;47.30;;;;;;5035617;28;20099;-13
2022/04/17 06:32:04;;;;;;;8.82;4.30;;;13.40;46.00;;;;;;5035497;28;20108;-13
2022/04/17 06:34:30;;;;;;;6.55;4.35;;;13.50;47.10;;;;;;5035570;28;20101;-13
2022/04/17 06:36:56;;;;;;;10.40;4.30;;;13.60;44.50;;;;;;5035666;28;20026;-14
2022/04/17 06:39:22;;;;;;;6.60;4.22;;;13.70;45.00;;;;;;5035725;28;20025;-15
2022/04/17 06:41:49;;;;;;;7.70;3.80;;;13.90;45.00;;;;;;5035358;28;20025;-13
2022/04/17 06:44:16;;;;;;;6.78;3.88;;;13.90;42.10;;;;;;5035223;28;20112;-16
2022/04/17 06:46:42;;;;;;;7.38;3.72;;;13.90;44.30;;;;;;5035185;28;20142;-15
2022/04/17 06:49:08;;;;;;;7.88;3.92;;;14.10;43.30;;;;;;5033895;28;20124;-14
2022/04/17 06:51:34;;;;;;;8.30;4.32;;;14.10;42.80;;;;;;5035458;28;20025;-15
2022/04/17 06:54:00;;;;;;;9.50;3.95;;;14.10;43.20;;;;;;5035240;28;20036;-15
2022/04/17 06:56:26;;;;;;;7.75;3.83;;;14.20;42.90;;;;;;5034861;28;20022;-13
2022/04/17 06:58:51;;;;;;;6.50;3.85;;;14.40;41.60;;;;;;5035400;28;20052;-14
2022/04/17 07:01:18;;;;;;;7.13;3.97;;;14.50;41.70;;;;;;5035049;28;20075;-13
2022/04/17 07:03:45;;;;;;;7.05;3.95;;;14.50;40.40;;;;;;5034961;28;20044;-16
2022/04/17 07:06:11;;;;;;;5.20;3.72;;;14.50;41.70;;;;;;5034927;28;20136;-15
2022/04/17 07:08:38;;;;;;;7.53;3.88;;;14.60;41.90;;;;;;5034882;28;20033;-14
2022/04/17 07:11:04;;;;;;;6.22;3.80;;;14.60;39.70;;;;;;5034789;28;20025;-15
2022/04/17 07:13:31;;;;;;;8.10;3.67;;;14.70;41.70;;;;;;5035073;28;20031;-13
2022/04/17 07:15:57;;;;;;;6.90;3.80;;;14.80;40.60;;;;;;5035039;28;20108;-13
2022/04/17 07:18:23;;;;;;;4.63;3.20;;;14.70;39.10;;;;;;5034432;28;20029;-16
2022/04/17 07:20:49;;;;;;;6.00;3.67;;;14.80;40.40;;;;;;5034930;28;20037;-16
2022/04/17 07:23:15;;;;;;;7.75;3.40;;;14.90;40.00;;;;;;5034543;28;20033;-14
2022/04/17 07:25:41;;;;;;;7.50;3.40;;;14.90;38.40;;;;;;5034518;28;20448;-14
2022/04/17 07:28:15;;;;;;;6.32;3.25;;;14.80;38.90;;;;;;5034485;28;20431;-14
2022/04/17 07:30:40;;;;;;;6.70;3.70;;;14.90;39.70;;;;;;5033130;28;20040;-16
2022/04/17 07:33:06;;;;;;;6.70;3.50;;;14.80;38.30;;;;;;5034430;28;20033;-14
2022/04/17 07:35:32;;;;;;;7.90;3.60;;;14.80;40.90;;;;;;5034668;28;20021;-15
2022/04/17 07:38:01;;;;;;;6.00;3.60;;;14.90;38.90;;;;;;5033095;28;20080;-14
2022/04/17 07:40:30;;;;;;;6.43;3.75;;;14.80;40.00;;;;;;5034369;28;20026;-14
2022/04/17 07:42:59;;;;;;;5.88;2.95;;;14.80;38.40;;;;;;5034535;28;20044;-13
2022/04/17 07:45:26;;;;;;;3.38;2.83;;;14.70;38.50;;;;;;5034115;28;20013;-14
2022/04/17 07:47:52;;;;;;;4.82;3.30;;;14.70;38.60;;;;;;5034145;28;20481;-14
2022/04/17 07:50:24;;;;;;;4.82;3.10;;;14.70;39.60;;;;;;5034090;28;20029;-16
2022/04/17 07:52:52;;;;;;;5.72;3.38;;;14.70;39.60;;;;;;5034305;28;20456;-15
2022/04/17 07:55:18;;;;;;;5.80;3.35;;;14.80;38.90;;;;;;5034259;28;20072;-14
2022/04/17 08:00:22;;;;;;;6.15;3.47;;;14.90;37.90;;;;;;5033670;28;20032;-13
2022/04/17 08:02:53;;;;;;;5.35;3.47;;;15.10;37.90;;;;;;5033817;28;20072;-14
2022/04/17 08:05:22;;;;;;;7.25;3.50;;;15.20;38.20;;;;;;5033604;28;20048;-16
2022/04/17 08:07:50;;;;;;;6.18;3.47;;;15.30;39.10;;;;;;5034179;28;20025;-14
2022/04/17 08:10:16;;;;;;;4.47;3.20;;;15.40;38.70;;;;;;5033701;28;20037;-15
2022/04/17 08:12:42;;;;;;;3.97;3.20;;;15.60;39.20;;;;;;5033647;28;20108;-13
2022/04/17 08:15:09;;;;;;;5.55;3.03;;;15.90;38.50;;;;;;5033525;28;20036;-16
2022/04/17 08:17:35;;;;;;;5.13;3.40;;;16.10;38.30;;;;;;5033373;28;20055;-13
2022/04/17 08:20:01;;;;;;;3.95;2.92;;;16.20;35.50;;;;;;5034405;28;20056;-14
2022/04/17 08:22:27;;;;;;;7.97;3.72;;;16.20;36.40;;;;;;5033291;28;20036;-14
2022/04/17 08:24:59;;;;;;;5.43;3.60;;;16.30;37.00;;;;;;5033694;28;20025;-13
2022/04/17 08:27:25;;;;;;;3.72;3.33;;;16.40;37.40;;;;;;5033441;28;20040;-14
2022/04/17 08:29:51;;;;;;;4.95;3.38;;;16.50;36.50;;;;;;5033189;28;20065;-14
2022/04/17 08:32:17;;;;;;;5.28;3.42;;;16.50;36.50;;;;;;5033449;28;20060;-13
2022/04/17 08:34:43;;;;;;;4.25;3.17;;;16.40;35.60;;;;;;5033594;28;20128;-16
2022/04/17 08:37:09;;;;;;;6.75;3.40;;;16.20;36.10;;;;;;5033687;28;20064;-14
2022/04/17 08:39:35;;;;;;;4.80;3.55;;;16.30;37.30;;;;;;5032081;28;20500;-15
2022/04/17 08:42:04;;;;;;;4.50;3.17;;;16.40;36.40;;;;;;5033229;28;20358;-14
2022/04/17 08:44:30;;;;;;;4.85;3.08;;;16.50;36.00;;;;;;5031716;28;20029;-13
2022/04/17 08:46:56;;;;;;;5.03;3.78;;;16.80;35.60;;;;;;5033381;28;20049;-13
2022/04/17 08:49:25;;;;;;;4.32;3.08;;;17.10;34.20;;;;;;5033030;28;20044;-13
2022/04/17 08:51:55;;;;;;;6.60;3.97;;;17.30;34.00;;;;;;5033680;28;20145;-16
2022/04/17 08:54:26;;;;;;;5.97;3.55;;;17.50;34.70;;;;;;5032894;28;20493;-14
2022/04/17 08:56:53;;;;;;;6.07;3.95;;;17.70;34.90;;;;;;5033128;28;20037;-16
2022/04/17 08:59:19;;;;;;;7.45;3.80;;;17.80;34.50;;;;;;5033876;28;20067;-14
2022/04/17 09:01:46;;;;;;;6.88;3.70;;;17.90;34.20;;;;;;5033122;28;20103;-14
2022/04/17 09:04:13;;;;;;;5.65;3.97;;;17.90;34.20;;;;;;5032966;28;20040;-15
2022/04/17 09:06:40;;;;;;;7.43;3.92;;;17.90;34.50;;;;;;5032978;28;20050;-15
2022/04/17 09:09:06;;;;;;;4.30;3.45;;;17.90;34.70;;;;;;5033058;28;20068;-14
2022/04/17 09:11:34;;;;;;;6.22;3.78;;;18.00;34.60;;;;;;5033253;28;20029;-15
2022/04/17 09:14:02;;;;;;;6.40;4.30;;;18.00;34.40;;;;;;5032914;28;20029;-15
2022/04/17 09:16:42;;;;;;;6.65;3.80;;;18.20;33.70;;;;;;5032663;28;20041;-13
2022/04/17 09:19:19;;;;;;;5.50;4.07;;;18.40;33.90;;;;;;5033156;28;20432;-14
2022/04/17 09:21:53;;;;;;;6.00;4.10;;;18.60;32.90;;;;;;5033133;28;20389;-16
2022/04/17 09:24:21;;;;;;;4.80;3.78;;;18.60;32.10;;;;;;5033018;28;20037;-14
2022/04/17 09:26:49;;;;;;;6.25;3.58;;;18.70;31.60;;;;;;5032815;28;20025;-14
2022/04/17 09:29:38;;;;;;;6.60;3.83;;;18.80;32.30;;;;;;5033273;28;20037;-14
2022/04/17 09:32:12;;;;;;;4.80;3.80;;;19.00;32.10;;;;;;5037123;28;20034;-14
2022/04/17 09:34:50;;;;;;;5.60;3.83;;;19.20;31.20;;;;;;5036664;28;20569;-14
2022/04/17 09:37:18;;;;;;;6.50;3.70;;;19.30;31.10;;;;;;5036631;28;20079;-14
2022/04/17 09:39:46;;;;;;;5.93;3.90;;;19.30;31.00;;;;;;5036748;28;20017;-13
2022/04/17 09:42:12;;;;;;;6.53;3.90;;;19.30;31.10;;;;;;5036463;28;20112;-14
2022/04/17 09:44:38;;;;;;;6.22;4.15;;;19.40;31.20;;;;;;5036726;28;20024;-14
2022/04/17 09:47:12;;;;;;;5.82;4.00;;;19.40;30.90;;;;;;5036856;28;20112;-14
2022/04/17 09:49:52;;;;;;;5.43;4.10;;;19.40;31.80;;;;;;5036308;28;20033;-14
2022/04/17 09:52:19;;;;;;;6.35;3.95;;;19.40;31.30;;;;;;5036060;28;20075;-14
2022/04/17 09:54:47;;;;;;;6.35;4.15;;;19.40;31.70;;;;;;5036554;28;20032;-14
2022/04/17 09:57:19;;;;;;;6.03;3.97;;;19.40;31.50;;;;;;5036459;28;20037;-16
2022/04/17 09:59:46;;;;;;;6.85;4.22;;;19.40;32.30;;;;;;5036444;28;20025;-15
2022/04/17 10:02:14;;;;;;;6.10;3.92;;;19.70;30.50;;;;;;5034809;28;20079;-14
2022/04/17 10:04:45;;;;;;;5.65;4.00;;;19.80;30.90;;;;;;5036077;28;20056;-14
2022/04/17 10:07:12;;;;;;;5.88;4.22;;;19.80;31.00;;;;;;5035910;28;20042;-14
2022/04/17 10:09:38;;;;;;;5.68;3.90;;;19.90;31.20;;;;;;5035898;28;20025;-14
2022/04/17 10:12:05;;;;;;;6.43;3.83;;;19.90;31.10;;;;;;5035915;28;20031;-14
2022/04/17 10:14:32;;;;;;;6.78;4.20;;;20.10;30.00;;;;;;5036252;28;20029;-14
2022/04/17 10:17:00;;;;;;;7.60;4.22;;;20.30;30.20;;;;;;5035936;28;20029;-13
2022/04/17 10:19:27;;;;;;;7.28;4.57;;;20.40;30.10;;;;;;5034496;28;20401;-16
2022/04/17 10:22:00;;;;;;;7.57;4.50;;;20.40;30.10;;;;;;5035729;28;20039;-15
2022/04/17 10:24:26;;;;;;;5.85;3.95;;;20.40;30.00;;;;;;5035822;28;20076;-14
2022/04/17 10:26:54;;;;;;;5.00;3.80;;;20.30;30.60;;;;;;5034342;28;20029;-14
2022/04/17 10:29:25;;;;;;;5.95;3.72;;;20.40;30.00;;;;;;5035578;28;20098;-14
2022/04/17 10:32:23;;;;;;;5.45;3.65;;;20.60;30.40;;;;;;5035851;28;20024;-14
2022/04/17 10:35:13;;;;;;;5.88;3.90;;;20.90;29.50;;;;;;5035836;28;20032;-14
2022/04/17 10:38:01;;;;;;;4.32;3.60;;;21.20;29.00;;;;;;5035475;28;20032;-14
2022/04/17 10:40:27;;;;;;;6.15;4.43;;;21.30;29.00;;;;;;5034771;28;20037;-14
2022/04/17 10:42:56;;;;;;;6.00;3.88;;;21.50;29.30;;;;;;5035303;28;20067;-14
2022/04/17 10:45:22;;;;;;;6.38;4.00;;;21.90;29.70;;;;;;5034028;28;20129;-14
2022/04/17 10:48:09;;;;;;;6.43;4.28;;;22.20;29.50;;;;;;5035425;28;20029;-13
2022/04/17 10:50:51;;;;;;;6.07;4.18;;;22.50;28.40;;;;;;5034963;28;20057;-14
2022/04/17 10:53:27;;;;;;;5.32;3.92;;;22.60;27.60;;;;;;5035284;28;20033;-14
2022/04/17 10:56:10;;;;;;;5.60;3.58;;;22.60;28.20;;;;;;5035958;28;20460;-14
2022/04/17 10:58:40;;;;;;;8.60;5.00;;;22.80;27.40;;;;;;5035541;28;20079;-14
2022/04/17 11:01:09;;;;;;;7.03;4.40;;;22.90;28.20;;;;;;5035339;28;20025;-14
2022/04/17 11:03:36;;;;;;;8.70;5.95;;;22.70;27.60;;;;;;5035390;28;20022;-14
2022/04/17 11:06:30;;;;;;;6.20;4.32;;;22.40;27.90;;;;;;5034753;28;20052;-14
2022/04/17 11:09:12;;;;;;;5.60;3.63;;;22.30;28.10;;;;;;5034856;28;20076;-14
2022/04/17 11:11:43;;;;;;;6.40;4.03;;;22.40;27.90;;;;;;5034875;28;20032;-14
2022/04/17 11:14:19;;;;;;;5.82;3.75;;;22.90;27.40;;;;;;5034889;28;20121;-14
2022/04/17 11:16:51;;;;;;;5.32;3.63;;;23.30;27.40;;;;;;5034705;28;20076;-14
2022/04/17 11:19:22;;;;;;;5.38;3.47;;;23.50;26.50;;;;;;5035230;28;20112;-14
2022/04/17 11:21:51;;;;;;;13.82;10.38;;;23.70;27.10;;;;;;5034709;28;20084;-14
2022/04/17 11:24:19;;;;;;;8.48;4.30;;;23.80;27.50;;;;;;5034698;28;20048;-13
2022/04/17 11:26:54;;;;;;;5.32;4.00;;;23.90;28.20;;;;;;5034534;28;20036;-14
2022/04/17 11:29:50;;;;;;;4.47;3.67;;;23.70;27.30;;;;;;5035033;28;20033;-14
2022/04/17 11:32:18;;;;;;;7.05;4.53;;;23.70;27.00;;;;;;5034495;28;20026;-14
2022/04/17 11:34:53;;;;;;;6.63;4.25;;;24.00;25.50;;;;;;5035031;28;20028;-13
2022/04/17 11:37:39;;;;;;;4.65;3.80;;;24.00;26.20;;;;;;5034414;28;20057;-14
2022/04/17 11:40:13;;;;;;;5.93;3.83;;;24.20;26.00;;;;;;5034305;28;20034;-14
2022/04/17 11:42:43;;;;;;;6.40;3.83;;;24.50;25.60;;;;;;5034815;28;20053;-14
2022/04/17 11:45:11;;;;;;;5.15;3.83;;;24.70;26.00;;;;;;5034396;28;20089;-13
2022/04/17 11:47:43;;;;;;;6.43;3.83;;;24.80;25.50;;;;;;5034457;28;20017;-14
2022/04/17 11:50:30;;;;;;;6.50;4.32;;;24.80;25.70;;;;;;5034017;28;20038;-14
2022/04/17 11:53:01;;;;;;;8.52;4.20;;;24.80;25.30;;;;;;5033649;28;20026;-14
2022/04/17 11:55:36;;;;;;;7.28;4.15;;;24.60;26.00;;;;;;5033272;28;20084;-13
2022/04/17 11:58:03;;;;;;;6.25;4.53;;;24.60;26.70;;;;;;5034238;28;20024;-15
2022/04/17 12:00:30;;;;;;;7.20;4.45;;;24.70;26.80;;;;;;5033623;28;20029;-14
2022/04/17 12:03:01;;;;;;;7.88;4.10;;;24.90;26.80;;;;;;5033841;28;20033;-14
2022/04/17 12:05:30;;;;;;;6.28;3.47;;;25.20;27.60;;;;;;5033898;28;20053;-14
2022/04/17 12:08:06;;;;;;;7.28;3.90;;;25.40;27.10;;;;;;5034044;28;20481;-15
2022/04/17 12:10:34;;;;;;;6.55;4.20;;;25.70;25.20;;;;;;5033453;28;20397;-15
2022/04/17 12:13:15;;;;;;;9.30;3.65;;;25.80;25.50;;;;;;5034111;28;20028;-14
2022/04/17 12:15:42;;;;;;;6.65;3.55;;;25.90;26.40;;;;;;5033881;28;20038;-14
2022/04/17 12:18:08;;;;;;;8.55;3.58;;;25.70;26.20;;;;;;5032339;28;20029;-14
2022/04/17 12:20:35;;;;;;;7.07;3.63;;;25.60;26.60;;;;;;5033606;28;20028;-14
2022/04/17 12:23:01;;;;;;;6.90;3.55;;;25.40;26.50;;;;;;5033488;28;20033;-13
2022/04/17 12:25:28;;;;;;;8.48;3.63;;;25.30;27.20;;;;;;5033683;28;20029;-14
2022/04/17 12:27:54;;;;;;;7.90;3.60;;;25.40;27.50;;;;;;5033596;28;20026;-13
2022/04/17 12:30:26;;;;;;;8.90;3.20;;;25.50;26.80;;;;;;5033383;28;20084;-13
2022/04/17 12:33:02;;;;;;;8.20;3.45;;;25.60;26.40;;;;;;5033934;28;20024;-13
2022/04/17 12:35:32;;;;;;;11.05;3.30;;;25.60;25.50;;;;;;5034007;28;20048;-13
2022/04/17 12:38:10;;;;;;;8.07;3.15;;;25.70;26.20;;;;;;5033853;28;20063;-13
2022/04/17 12:40:43;;;;;;;9.52;3.38;;;25.80;25.00;;;;;;5033841;28;20037;-14
2022/04/17 12:43:22;;;;;;;6.82;3.28;;;25.80;25.80;;;;;;5033551;28;20068;-13
2022/04/17 12:45:59;;;;;;;6.75;2.90;;;25.90;25.50;;;;;;5033143;28;20025;-14
2022/04/17 12:48:36;;;;;;;8.73;3.13;;;26.00;25.90;;;;;;5033363;28;20024;-14
2022/04/17 12:51:11;;;;;;;7.22;2.95;;;26.10;26.60;;;;;;5033225;28;20493;-14
2022/04/17 12:53:40;;;;;;;6.93;2.97;;;26.20;26.00;;;;;;5033455;28;20021;-14
2022/04/17 12:56:08;;;;;;;8.50;3.20;;;26.30;25.80;;;;;;5033059;28;20033;-14
2022/04/17 12:58:54;;;;;;;5.63;2.70;;;26.40;25.80;;;;;;5032827;28;20033;-15
2022/04/17 13:01:25;;;;;;;5.15;3.00;;;26.60;25.40;;;;;;5033294;28;20029;-14
2022/04/17 13:03:52;;;;;;;6.63;3.08;;;26.80;26.10;;;;;;5034626;28;20025;-15
2022/04/17 13:06:20;;;;;;;6.25;2.75;;;26.70;25.90;;;;;;5036722;28;20160;-14
2022/04/17 13:09:06;;;;;;;5.57;2.67;;;26.70;25.50;;;;;;5037300;28;20080;-15